sensor_id;sensor_type;location;lat;lon;timestamp;P1;durP1;ratioP1;P2;durP2;ratioP2
26050;SDS011;13825;53.496;10.020;2023-05-07T00:01:14;14.43;;;7.67;;
26050;SDS011;13825;53.496;10.020;2023-05-07T00:03:43;11.57;;;7.13;;
26050;SDS011;13825;53.496;10.020;2023-05-07T00:06:09;12.70;;;7.53;;
26050;SDS011;13825;53.496;10.020;2023-05-07T00:08:37;11.63;;;7.53;;
26050;SDS011;13825;53.496;10.020;2023-05-07T00:11:04;11.77;;;7.27;;
26050;SDS011;13825;53.496;10.020;2023-05-07T00:13:31;10.20;;;7.07;;
26050;SDS011;13825;53.496;10.020;2023-05-07T00:16:00;12.00;;;8.00;;
26050;SDS011;13825;53.496;10.020;2023-05-07T00:18:27;13.57;;;7.60;;
26050;SDS011;13825;53.496;10.020;2023-05-07T00:20:55;13.37;;;7.97;;
26050;SDS011;13825;53.496;10.020;2023-05-07T00:23:22;11.27;;;6.83;;
26050;SDS011;13825;53.496;10.020;2023-05-07T00:25:49;10.27;;;7.37;;
26050;SDS011;13825;53.496;10.020;2023-05-07T00:28:16;10.47;;;6.27;;
26050;SDS011;13825;53.496;10.020;2023-05-07T00:30:43;11.07;;;6.63;;
26050;SDS011;13825;53.496;10.020;2023-05-07T00:33:10;7.73;;;5.97;;
26050;SDS011;13825;53.496;10.020;2023-05-07T00:35:37;9.13;;;6.20;;
26050;SDS011;13825;53.496;10.020;2023-05-07T00:38:05;9.97;;;6.47;;
26050;SDS011;13825;53.496;10.020;2023-05-07T00:40:32;8.17;;;5.67;;
26050;SDS011;13825;53.496;10.020;2023-05-07T00:42:59;10.40;;;6.73;;
26050;SDS011;13825;53.496;10.020;2023-05-07T00:45:27;9.50;;;6.30;;
26050;SDS011;13825;53.496;10.020;2023-05-07T00:47:55;10.67;;;6.30;;
26050;SDS011;13825;53.496;10.020;2023-05-07T00:50:23;8.60;;;6.27;;
26050;SDS011;13825;53.496;10.020;2023-05-07T00:52:51;7.43;;;5.10;;
26050;SDS011;13825;53.496;10.020;2023-05-07T00:55:20;9.37;;;6.07;;
26050;SDS011;13825;53.496;10.020;2023-05-07T00:57:48;8.27;;;5.60;;
26050;SDS011;13825;53.496;10.020;2023-05-07T01:00:16;7.80;;;5.87;;
26050;SDS011;13825;53.496;10.020;2023-05-07T01:02:44;9.60;;;6.20;;
26050;SDS011;13825;53.496;10.020;2023-05-07T01:05:13;10.13;;;6.00;;
26050;SDS011;13825;53.496;10.020;2023-05-07T01:07:42;7.83;;;5.53;;
26050;SDS011;13825;53.496;10.020;2023-05-07T01:10:10;7.47;;;5.27;;
26050;SDS011;13825;53.496;10.020;2023-05-07T01:12:39;7.97;;;5.37;;
26050;SDS011;13825;53.496;10.020;2023-05-07T01:15:07;8.47;;;5.83;;
26050;SDS011;13825;53.496;10.020;2023-05-07T01:17:36;9.93;;;6.43;;
26050;SDS011;13825;53.496;10.020;2023-05-07T01:20:04;7.80;;;5.73;;
26050;SDS011;13825;53.496;10.020;2023-05-07T01:22:34;8.03;;;5.77;;
26050;SDS011;13825;53.496;10.020;2023-05-07T01:25:03;7.77;;;5.63;;
26050;SDS011;13825;53.496;10.020;2023-05-07T01:27:31;6.93;;;5.43;;
26050;SDS011;13825;53.496;10.020;2023-05-07T01:29:58;7.53;;;5.77;;
26050;SDS011;13825;53.496;10.020;2023-05-07T01:32:27;7.80;;;5.40;;
26050;SDS011;13825;53.496;10.020;2023-05-07T01:34:56;9.90;;;6.00;;
26050;SDS011;13825;53.496;10.020;2023-05-07T01:37:24;9.57;;;6.00;;
26050;SDS011;13825;53.496;10.020;2023-05-07T01:39:53;10.20;;;6.03;;
26050;SDS011;13825;53.496;10.020;2023-05-07T01:42:20;7.57;;;5.70;;
26050;SDS011;13825;53.496;10.020;2023-05-07T01:44:48;8.83;;;5.17;;
26050;SDS011;13825;53.496;10.020;2023-05-07T01:47:15;7.90;;;5.67;;
26050;SDS011;13825;53.496;10.020;2023-05-07T01:49:43;8.00;;;5.73;;
26050;SDS011;13825;53.496;10.020;2023-05-07T01:52:10;7.93;;;5.80;;
26050;SDS011;13825;53.496;10.020;2023-05-07T01:54:37;7.40;;;5.53;;
26050;SDS011;13825;53.496;10.020;2023-05-07T01:57:05;7.77;;;5.67;;
26050;SDS011;13825;53.496;10.020;2023-05-07T01:59:32;7.00;;;5.30;;
26050;SDS011;13825;53.496;10.020;2023-05-07T02:01:59;8.37;;;5.93;;
26050;SDS011;13825;53.496;10.020;2023-05-07T02:04:26;6.73;;;4.80;;
26050;SDS011;13825;53.496;10.020;2023-05-07T02:06:53;7.90;;;6.27;;
26050;SDS011;13825;53.496;10.020;2023-05-07T02:09:20;8.53;;;5.60;;
26050;SDS011;13825;53.496;10.020;2023-05-07T02:11:48;8.80;;;5.57;;
26050;SDS011;13825;53.496;10.020;2023-05-07T02:14:16;10.27;;;6.40;;
26050;SDS011;13825;53.496;10.020;2023-05-07T02:16:43;6.40;;;4.97;;
26050;SDS011;13825;53.496;10.020;2023-05-07T02:19:10;7.90;;;5.63;;
26050;SDS011;13825;53.496;10.020;2023-05-07T02:21:36;10.93;;;6.60;;
26050;SDS011;13825;53.496;10.020;2023-05-07T02:24:04;10.63;;;5.90;;
26050;SDS011;13825;53.496;10.020;2023-05-07T02:26:31;8.30;;;5.90;;
26050;SDS011;13825;53.496;10.020;2023-05-07T02:28:59;9.67;;;6.03;;
26050;SDS011;13825;53.496;10.020;2023-05-07T02:31:27;7.53;;;5.57;;
26050;SDS011;13825;53.496;10.020;2023-05-07T02:33:54;9.13;;;5.97;;
26050;SDS011;13825;53.496;10.020;2023-05-07T02:36:21;8.97;;;5.93;;
26050;SDS011;13825;53.496;10.020;2023-05-07T02:38:48;9.70;;;6.33;;
26050;SDS011;13825;53.496;10.020;2023-05-07T02:41:15;8.60;;;5.47;;
26050;SDS011;13825;53.496;10.020;2023-05-07T02:43:42;8.13;;;6.07;;
26050;SDS011;13825;53.496;10.020;2023-05-07T02:46:09;9.07;;;6.37;;
26050;SDS011;13825;53.496;10.020;2023-05-07T02:48:37;8.87;;;6.10;;
26050;SDS011;13825;53.496;10.020;2023-05-07T02:51:04;9.77;;;6.07;;
26050;SDS011;13825;53.496;10.020;2023-05-07T02:53:31;8.07;;;5.80;;
26050;SDS011;13825;53.496;10.020;2023-05-07T02:55:59;8.87;;;6.00;;
26050;SDS011;13825;53.496;10.020;2023-05-07T02:58:27;8.27;;;6.13;;
26050;SDS011;13825;53.496;10.020;2023-05-07T03:00:54;12.13;;;7.00;;
26050;SDS011;13825;53.496;10.020;2023-05-07T03:03:21;9.23;;;6.40;;
26050;SDS011;13825;53.496;10.020;2023-05-07T03:05:51;8.87;;;6.23;;
26050;SDS011;13825;53.496;10.020;2023-05-07T03:08:18;13.40;;;6.77;;
26050;SDS011;13825;53.496;10.020;2023-05-07T03:10:45;11.43;;;7.33;;
26050;SDS011;13825;53.496;10.020;2023-05-07T03:13:12;10.13;;;6.83;;
26050;SDS011;13825;53.496;10.020;2023-05-07T03:15:39;9.90;;;6.73;;
26050;SDS011;13825;53.496;10.020;2023-05-07T03:18:06;9.00;;;6.50;;
26050;SDS011;13825;53.496;10.020;2023-05-07T03:20:32;11.30;;;6.60;;
26050;SDS011;13825;53.496;10.020;2023-05-07T03:23:02;9.93;;;7.00;;
26050;SDS011;13825;53.496;10.020;2023-05-07T03:25:29;10.07;;;6.93;;
26050;SDS011;13825;53.496;10.020;2023-05-07T03:27:56;9.07;;;6.40;;
26050;SDS011;13825;53.496;10.020;2023-05-07T03:30:23;10.23;;;7.13;;
26050;SDS011;13825;53.496;10.020;2023-05-07T03:32:51;9.30;;;6.93;;
26050;SDS011;13825;53.496;10.020;2023-05-07T03:35:19;10.40;;;7.67;;
26050;SDS011;13825;53.496;10.020;2023-05-07T03:37:46;9.57;;;6.53;;
26050;SDS011;13825;53.496;10.020;2023-05-07T03:40:14;11.70;;;7.57;;
26050;SDS011;13825;53.496;10.020;2023-05-07T03:42:41;11.50;;;7.97;;
26050;SDS011;13825;53.496;10.020;2023-05-07T03:45:08;11.00;;;6.30;;
26050;SDS011;13825;53.496;10.020;2023-05-07T03:47:35;9.87;;;6.97;;
26050;SDS011;13825;53.496;10.020;2023-05-07T03:50:02;11.47;;;6.57;;
26050;SDS011;13825;53.496;10.020;2023-05-07T03:52:30;10.50;;;7.17;;
26050;SDS011;13825;53.496;10.020;2023-05-07T03:54:56;9.17;;;6.77;;
26050;SDS011;13825;53.496;10.020;2023-05-07T03:57:25;11.00;;;6.97;;
26050;SDS011;13825;53.496;10.020;2023-05-07T03:59:52;13.27;;;6.80;;
26050;SDS011;13825;53.496;10.020;2023-05-07T04:02:18;9.80;;;6.80;;
26050;SDS011;13825;53.496;10.020;2023-05-07T04:04:45;10.73;;;7.10;;
26050;SDS011;13825;53.496;10.020;2023-05-07T04:07:14;10.17;;;7.13;;
26050;SDS011;13825;53.496;10.020;2023-05-07T04:09:41;9.67;;;6.23;;
26050;SDS011;13825;53.496;10.020;2023-05-07T04:12:08;11.47;;;7.70;;
26050;SDS011;13825;53.496;10.020;2023-05-07T04:14:36;10.50;;;6.50;;
26050;SDS011;13825;53.496;10.020;2023-05-07T04:17:03;9.30;;;6.83;;
26050;SDS011;13825;53.496;10.020;2023-05-07T04:19:32;8.87;;;6.80;;
26050;SDS011;13825;53.496;10.020;2023-05-07T04:21:59;9.27;;;6.57;;
26050;SDS011;13825;53.496;10.020;2023-05-07T04:24:26;10.57;;;6.87;;
26050;SDS011;13825;53.496;10.020;2023-05-07T04:26:53;9.40;;;6.60;;
26050;SDS011;13825;53.496;10.020;2023-05-07T04:29:20;13.13;;;7.27;;
26050;SDS011;13825;53.496;10.020;2023-05-07T04:31:48;11.03;;;6.37;;
26050;SDS011;13825;53.496;10.020;2023-05-07T04:34:15;9.27;;;6.50;;
26050;SDS011;13825;53.496;10.020;2023-05-07T04:36:42;9.53;;;6.73;;
26050;SDS011;13825;53.496;10.020;2023-05-07T04:39:12;9.60;;;6.70;;
26050;SDS011;13825;53.496;10.020;2023-05-07T04:41:40;10.40;;;6.70;;
26050;SDS011;13825;53.496;10.020;2023-05-07T04:44:07;9.70;;;6.60;;
26050;SDS011;13825;53.496;10.020;2023-05-07T04:46:34;11.57;;;6.63;;
26050;SDS011;13825;53.496;10.020;2023-05-07T04:49:02;8.63;;;6.10;;
26050;SDS011;13825;53.496;10.020;2023-05-07T04:51:30;8.87;;;6.53;;
26050;SDS011;13825;53.496;10.020;2023-05-07T04:53:57;8.57;;;6.17;;
26050;SDS011;13825;53.496;10.020;2023-05-07T04:56:27;10.50;;;6.40;;
26050;SDS011;13825;53.496;10.020;2023-05-07T04:58:54;10.73;;;6.80;;
26050;SDS011;13825;53.496;10.020;2023-05-07T05:01:21;10.17;;;6.70;;
26050;SDS011;13825;53.496;10.020;2023-05-07T05:03:50;9.23;;;6.27;;
26050;SDS011;13825;53.496;10.020;2023-05-07T05:06:19;10.53;;;6.73;;
26050;SDS011;13825;53.496;10.020;2023-05-07T05:08:46;8.73;;;6.13;;
26050;SDS011;13825;53.496;10.020;2023-05-07T05:11:13;13.40;;;6.37;;
26050;SDS011;13825;53.496;10.020;2023-05-07T05:13:40;10.77;;;6.00;;
26050;SDS011;13825;53.496;10.020;2023-05-07T05:16:07;10.87;;;7.07;;
26050;SDS011;13825;53.496;10.020;2023-05-07T05:18:34;9.33;;;6.30;;
26050;SDS011;13825;53.496;10.020;2023-05-07T05:21:01;10.23;;;6.47;;
26050;SDS011;13825;53.496;10.020;2023-05-07T05:23:29;8.97;;;6.60;;
26050;SDS011;13825;53.496;10.020;2023-05-07T05:25:56;9.63;;;6.40;;
26050;SDS011;13825;53.496;10.020;2023-05-07T05:28:24;10.93;;;6.67;;
26050;SDS011;13825;53.496;10.020;2023-05-07T05:30:51;10.97;;;7.00;;
26050;SDS011;13825;53.496;10.020;2023-05-07T05:33:18;8.57;;;6.80;;
26050;SDS011;13825;53.496;10.020;2023-05-07T05:35:45;11.83;;;6.77;;
26050;SDS011;13825;53.496;10.020;2023-05-07T05:38:11;9.27;;;6.83;;
26050;SDS011;13825;53.496;10.020;2023-05-07T05:40:40;9.67;;;6.70;;
26050;SDS011;13825;53.496;10.020;2023-05-07T05:43:07;9.67;;;6.23;;
26050;SDS011;13825;53.496;10.020;2023-05-07T05:45:34;9.03;;;5.67;;
26050;SDS011;13825;53.496;10.020;2023-05-07T05:48:01;10.47;;;6.90;;
26050;SDS011;13825;53.496;10.020;2023-05-07T05:50:28;8.70;;;6.33;;
26050;SDS011;13825;53.496;10.020;2023-05-07T05:52:55;10.43;;;6.87;;
26050;SDS011;13825;53.496;10.020;2023-05-07T05:55:22;9.93;;;6.80;;
26050;SDS011;13825;53.496;10.020;2023-05-07T05:57:51;10.13;;;6.77;;
26050;SDS011;13825;53.496;10.020;2023-05-07T06:00:18;9.13;;;5.97;;
26050;SDS011;13825;53.496;10.020;2023-05-07T06:02:47;9.57;;;6.57;;
26050;SDS011;13825;53.496;10.020;2023-05-07T06:05:14;9.73;;;6.13;;
26050;SDS011;13825;53.496;10.020;2023-05-07T06:07:41;10.07;;;6.13;;
26050;SDS011;13825;53.496;10.020;2023-05-07T06:10:09;11.27;;;6.30;;
26050;SDS011;13825;53.496;10.020;2023-05-07T06:12:36;8.77;;;6.37;;
26050;SDS011;13825;53.496;10.020;2023-05-07T06:15:06;8.03;;;5.63;;
26050;SDS011;13825;53.496;10.020;2023-05-07T06:17:37;14.53;;;6.60;;
26050;SDS011;13825;53.496;10.020;2023-05-07T06:20:07;9.53;;;5.83;;
26050;SDS011;13825;53.496;10.020;2023-05-07T06:22:34;10.10;;;6.47;;
26050;SDS011;13825;53.496;10.020;2023-05-07T06:25:02;8.27;;;5.83;;
26050;SDS011;13825;53.496;10.020;2023-05-07T06:27:29;10.37;;;6.10;;
26050;SDS011;13825;53.496;10.020;2023-05-07T06:29:56;7.93;;;5.90;;
26050;SDS011;13825;53.496;10.020;2023-05-07T06:32:24;8.43;;;5.97;;
26050;SDS011;13825;53.496;10.020;2023-05-07T06:34:51;8.13;;;5.50;;
26050;SDS011;13825;53.496;10.020;2023-05-07T06:37:18;8.27;;;6.13;;
26050;SDS011;13825;53.496;10.020;2023-05-07T06:39:46;7.80;;;5.70;;
26050;SDS011;13825;53.496;10.020;2023-05-07T06:42:14;9.47;;;6.17;;
26050;SDS011;13825;53.496;10.020;2023-05-07T06:44:41;9.73;;;6.47;;
26050;SDS011;13825;53.496;10.020;2023-05-07T06:47:08;6.63;;;5.30;;
26050;SDS011;13825;53.496;10.020;2023-05-07T06:49:37;8.67;;;6.13;;
26050;SDS011;13825;53.496;10.020;2023-05-07T06:52:04;9.90;;;6.13;;
26050;SDS011;13825;53.496;10.020;2023-05-07T06:54:31;8.03;;;5.27;;
26050;SDS011;13825;53.496;10.020;2023-05-07T06:56:58;8.17;;;6.30;;
26050;SDS011;13825;53.496;10.020;2023-05-07T06:59:25;8.57;;;5.90;;
26050;SDS011;13825;53.496;10.020;2023-05-07T07:01:52;11.60;;;6.37;;
26050;SDS011;13825;53.496;10.020;2023-05-07T07:04:19;9.50;;;6.47;;
26050;SDS011;13825;53.496;10.020;2023-05-07T07:06:49;8.67;;;5.83;;
26050;SDS011;13825;53.496;10.020;2023-05-07T07:09:20;9.63;;;6.23;;
26050;SDS011;13825;53.496;10.020;2023-05-07T07:11:48;9.97;;;5.80;;
26050;SDS011;13825;53.496;10.020;2023-05-07T07:14:15;7.70;;;5.60;;
26050;SDS011;13825;53.496;10.020;2023-05-07T07:16:42;7.40;;;5.50;;
26050;SDS011;13825;53.496;10.020;2023-05-07T07:19:09;7.97;;;5.37;;
26050;SDS011;13825;53.496;10.020;2023-05-07T07:21:38;7.10;;;5.30;;
26050;SDS011;13825;53.496;10.020;2023-05-07T07:24:14;6.57;;;4.67;;
26050;SDS011;13825;53.496;10.020;2023-05-07T07:26:46;7.33;;;5.10;;
26050;SDS011;13825;53.496;10.020;2023-05-07T07:29:13;6.97;;;5.17;;
26050;SDS011;13825;53.496;10.020;2023-05-07T07:31:40;6.57;;;4.63;;
26050;SDS011;13825;53.496;10.020;2023-05-07T07:34:07;7.13;;;4.90;;
26050;SDS011;13825;53.496;10.020;2023-05-07T07:36:34;6.57;;;5.23;;
26050;SDS011;13825;53.496;10.020;2023-05-07T07:39:01;8.00;;;5.23;;
26050;SDS011;13825;53.496;10.020;2023-05-07T07:41:30;6.87;;;4.93;;
26050;SDS011;13825;53.496;10.020;2023-05-07T07:43:59;6.53;;;4.97;;
26050;SDS011;13825;53.496;10.020;2023-05-07T07:46:28;8.70;;;5.40;;
26050;SDS011;13825;53.496;10.020;2023-05-07T07:48:58;7.90;;;5.40;;
26050;SDS011;13825;53.496;10.020;2023-05-07T07:51:26;6.50;;;4.73;;
26050;SDS011;13825;53.496;10.020;2023-05-07T07:53:53;9.63;;;4.90;;
26050;SDS011;13825;53.496;10.020;2023-05-07T07:56:20;6.93;;;4.87;;
26050;SDS011;13825;53.496;10.020;2023-05-07T07:58:48;9.80;;;5.23;;
26050;SDS011;13825;53.496;10.020;2023-05-07T08:01:15;6.97;;;5.13;;
26050;SDS011;13825;53.496;10.020;2023-05-07T08:03:42;7.03;;;4.90;;
26050;SDS011;13825;53.496;10.020;2023-05-07T08:06:09;5.63;;;4.33;;
26050;SDS011;13825;53.496;10.020;2023-05-07T08:08:36;5.93;;;4.03;;
26050;SDS011;13825;53.496;10.020;2023-05-07T08:11:03;5.83;;;4.17;;
26050;SDS011;13825;53.496;10.020;2023-05-07T08:13:31;5.37;;;4.17;;
26050;SDS011;13825;53.496;10.020;2023-05-07T08:15:59;5.00;;;4.00;;
26050;SDS011;13825;53.496;10.020;2023-05-07T08:18:26;6.73;;;4.60;;
26050;SDS011;13825;53.496;10.020;2023-05-07T08:20:54;5.60;;;4.30;;
26050;SDS011;13825;53.496;10.020;2023-05-07T08:23:21;6.40;;;4.70;;
26050;SDS011;13825;53.496;10.020;2023-05-07T08:25:48;5.47;;;4.57;;
26050;SDS011;13825;53.496;10.020;2023-05-07T08:28:17;5.80;;;4.40;;
26050;SDS011;13825;53.496;10.020;2023-05-07T08:30:46;6.27;;;4.63;;
26050;SDS011;13825;53.496;10.020;2023-05-07T08:33:15;8.03;;;4.67;;
26050;SDS011;13825;53.496;10.020;2023-05-07T08:35:42;6.47;;;4.77;;
26050;SDS011;13825;53.496;10.020;2023-05-07T08:38:10;7.70;;;4.77;;
26050;SDS011;13825;53.496;10.020;2023-05-07T08:40:38;6.77;;;5.00;;
26050;SDS011;13825;53.496;10.020;2023-05-07T08:43:06;7.40;;;4.77;;
26050;SDS011;13825;53.496;10.020;2023-05-07T08:45:34;6.67;;;4.73;;
26050;SDS011;13825;53.496;10.020;2023-05-07T08:48:02;6.73;;;4.93;;
26050;SDS011;13825;53.496;10.020;2023-05-07T08:50:33;7.53;;;4.53;;
26050;SDS011;13825;53.496;10.020;2023-05-07T08:53:02;6.20;;;5.00;;
26050;SDS011;13825;53.496;10.020;2023-05-07T08:55:29;6.13;;;4.50;;
26050;SDS011;13825;53.496;10.020;2023-05-07T08:57:56;5.20;;;4.70;;
26050;SDS011;13825;53.496;10.020;2023-05-07T09:00:24;5.87;;;4.60;;
26050;SDS011;13825;53.496;10.020;2023-05-07T09:02:51;6.70;;;4.60;;
26050;SDS011;13825;53.496;10.020;2023-05-07T09:05:19;5.90;;;4.97;;
26050;SDS011;13825;53.496;10.020;2023-05-07T09:07:47;6.20;;;4.77;;
26050;SDS011;13825;53.496;10.020;2023-05-07T09:10:15;5.40;;;4.37;;
26050;SDS011;13825;53.496;10.020;2023-05-07T09:12:44;6.97;;;5.03;;
26050;SDS011;13825;53.496;10.020;2023-05-07T09:15:15;5.73;;;4.73;;
26050;SDS011;13825;53.496;10.020;2023-05-07T09:17:42;6.27;;;4.73;;
26050;SDS011;13825;53.496;10.020;2023-05-07T09:20:11;6.27;;;4.97;;
26050;SDS011;13825;53.496;10.020;2023-05-07T09:22:39;7.57;;;4.77;;
26050;SDS011;13825;53.496;10.020;2023-05-07T09:25:08;6.33;;;4.87;;
26050;SDS011;13825;53.496;10.020;2023-05-07T09:27:35;5.13;;;4.27;;
26050;SDS011;13825;53.496;10.020;2023-05-07T09:30:03;7.93;;;5.17;;
26050;SDS011;13825;53.496;10.020;2023-05-07T09:32:34;6.43;;;4.67;;
26050;SDS011;13825;53.496;10.020;2023-05-07T09:35:03;6.67;;;4.97;;
26050;SDS011;13825;53.496;10.020;2023-05-07T09:37:32;5.33;;;4.27;;
26050;SDS011;13825;53.496;10.020;2023-05-07T09:39:59;5.47;;;4.47;;
26050;SDS011;13825;53.496;10.020;2023-05-07T09:42:28;6.13;;;4.50;;
26050;SDS011;13825;53.496;10.020;2023-05-07T09:44:55;6.20;;;4.33;;
26050;SDS011;13825;53.496;10.020;2023-05-07T09:47:24;6.83;;;4.37;;
26050;SDS011;13825;53.496;10.020;2023-05-07T09:49:52;6.27;;;4.73;;
26050;SDS011;13825;53.496;10.020;2023-05-07T09:52:24;7.03;;;4.70;;
26050;SDS011;13825;53.496;10.020;2023-05-07T09:54:58;6.27;;;4.70;;
26050;SDS011;13825;53.496;10.020;2023-05-07T09:57:31;5.90;;;4.20;;
26050;SDS011;13825;53.496;10.020;2023-05-07T10:00:00;5.67;;;4.47;;
26050;SDS011;13825;53.496;10.020;2023-05-07T10:02:32;5.70;;;4.47;;
26050;SDS011;13825;53.496;10.020;2023-05-07T10:05:02;5.37;;;4.73;;
26050;SDS011;13825;53.496;10.020;2023-05-07T10:07:31;5.70;;;4.37;;
26050;SDS011;13825;53.496;10.020;2023-05-07T10:09:58;6.90;;;4.93;;
26050;SDS011;13825;53.496;10.020;2023-05-07T10:12:29;5.67;;;4.30;;
26050;SDS011;13825;53.496;10.020;2023-05-07T10:15:02;7.17;;;4.87;;
26050;SDS011;13825;53.496;10.020;2023-05-07T10:17:32;5.30;;;4.33;;
26050;SDS011;13825;53.496;10.020;2023-05-07T10:20:05;5.77;;;4.00;;
26050;SDS011;13825;53.496;10.020;2023-05-07T10:22:44;6.47;;;4.57;;
26050;SDS011;13825;53.496;10.020;2023-05-07T10:25:20;6.10;;;4.80;;
26050;SDS011;13825;53.496;10.020;2023-05-07T10:27:51;7.57;;;4.83;;
26050;SDS011;13825;53.496;10.020;2023-05-07T10:30:22;6.03;;;4.80;;
26050;SDS011;13825;53.496;10.020;2023-05-07T10:33:09;6.37;;;4.40;;
26050;SDS011;13825;53.496;10.020;2023-05-07T10:35:57;6.80;;;4.77;;
26050;SDS011;13825;53.496;10.020;2023-05-07T10:38:32;5.53;;;4.33;;
26050;SDS011;13825;53.496;10.020;2023-05-07T10:41:06;5.13;;;4.03;;
26050;SDS011;13825;53.496;10.020;2023-05-07T10:43:39;5.40;;;4.60;;
26050;SDS011;13825;53.496;10.020;2023-05-07T10:46:14;6.27;;;4.70;;
26050;SDS011;13825;53.496;10.020;2023-05-07T10:51:36;5.33;;;4.03;;
26050;SDS011;13825;53.496;10.020;2023-05-07T10:54:19;5.33;;;4.30;;
26050;SDS011;13825;53.496;10.020;2023-05-07T10:56:47;5.43;;;4.30;;
26050;SDS011;13825;53.496;10.020;2023-05-07T11:02:08;6.60;;;4.83;;
26050;SDS011;13825;53.496;10.020;2023-05-07T11:04:39;6.03;;;4.07;;
26050;SDS011;13825;53.496;10.020;2023-05-07T11:07:18;5.03;;;3.90;;
26050;SDS011;13825;53.496;10.020;2023-05-07T11:09:54;5.13;;;4.10;;
26050;SDS011;13825;53.496;10.020;2023-05-07T11:15:34;8.10;;;4.20;;
26050;SDS011;13825;53.496;10.020;2023-05-07T11:18:07;4.90;;;4.17;;
26050;SDS011;13825;53.496;10.020;2023-05-07T11:26:45;5.80;;;4.07;;
26050;SDS011;13825;53.496;10.020;2023-05-07T11:29:14;6.13;;;4.07;;
26050;SDS011;13825;53.496;10.020;2023-05-07T11:31:45;5.00;;;3.70;;
26050;SDS011;13825;53.496;10.020;2023-05-07T11:34:16;3.97;;;3.43;;
26050;SDS011;13825;53.496;10.020;2023-05-07T11:36:48;5.70;;;3.83;;
26050;SDS011;13825;53.496;10.020;2023-05-07T11:39:28;4.47;;;4.07;;
26050;SDS011;13825;53.496;10.020;2023-05-07T11:41:56;4.13;;;3.73;;
26050;SDS011;13825;53.496;10.020;2023-05-07T11:44:23;4.13;;;3.47;;
26050;SDS011;13825;53.496;10.020;2023-05-07T11:46:51;4.37;;;3.60;;
26050;SDS011;13825;53.496;10.020;2023-05-07T11:49:18;4.47;;;3.53;;
26050;SDS011;13825;53.496;10.020;2023-05-07T11:51:48;5.40;;;3.90;;
26050;SDS011;13825;53.496;10.020;2023-05-07T11:54:18;5.60;;;4.27;;
26050;SDS011;13825;53.496;10.020;2023-05-07T11:56:49;6.77;;;3.90;;
26050;SDS011;13825;53.496;10.020;2023-05-07T11:59:19;5.90;;;4.00;;
26050;SDS011;13825;53.496;10.020;2023-05-07T12:02:01;3.53;;;3.03;;
26050;SDS011;13825;53.496;10.020;2023-05-07T12:04:32;5.10;;;4.20;;
26050;SDS011;13825;53.496;10.020;2023-05-07T12:06:59;4.40;;;3.47;;
26050;SDS011;13825;53.496;10.020;2023-05-07T12:09:32;4.50;;;3.53;;
26050;SDS011;13825;53.496;10.020;2023-05-07T12:12:02;4.17;;;3.47;;
26050;SDS011;13825;53.496;10.020;2023-05-07T12:14:37;3.20;;;2.90;;
26050;SDS011;13825;53.496;10.020;2023-05-07T12:17:06;3.80;;;3.30;;
26050;SDS011;13825;53.496;10.020;2023-05-07T12:19:34;4.03;;;3.20;;
26050;SDS011;13825;53.496;10.020;2023-05-07T12:22:06;5.13;;;3.40;;
26050;SDS011;13825;53.496;10.020;2023-05-07T12:24:46;3.77;;;3.20;;
26050;SDS011;13825;53.496;10.020;2023-05-07T12:27:27;3.50;;;3.17;;
26050;SDS011;13825;53.496;10.020;2023-05-07T12:29:56;4.07;;;3.33;;
26050;SDS011;13825;53.496;10.020;2023-05-07T12:32:25;3.50;;;2.87;;
26050;SDS011;13825;53.496;10.020;2023-05-07T12:34:53;3.13;;;2.80;;
26050;SDS011;13825;53.496;10.020;2023-05-07T12:37:23;3.57;;;3.23;;
26050;SDS011;13825;53.496;10.020;2023-05-07T12:40:04;3.20;;;2.80;;
26050;SDS011;13825;53.496;10.020;2023-05-07T12:42:32;2.93;;;2.67;;
26050;SDS011;13825;53.496;10.020;2023-05-07T12:45:07;3.53;;;2.87;;
26050;SDS011;13825;53.496;10.020;2023-05-07T12:47:36;3.43;;;3.10;;
26050;SDS011;13825;53.496;10.020;2023-05-07T12:50:04;3.37;;;2.77;;
26050;SDS011;13825;53.496;10.020;2023-05-07T12:52:33;3.27;;;2.70;;
26050;SDS011;13825;53.496;10.020;2023-05-07T12:55:04;2.87;;;2.57;;
26050;SDS011;13825;53.496;10.020;2023-05-07T12:57:37;3.77;;;3.10;;
26050;SDS011;13825;53.496;10.020;2023-05-07T13:00:06;3.20;;;2.87;;
26050;SDS011;13825;53.496;10.020;2023-05-07T13:02:38;3.13;;;2.77;;
26050;SDS011;13825;53.496;10.020;2023-05-07T13:05:06;4.30;;;2.43;;
26050;SDS011;13825;53.496;10.020;2023-05-07T13:07:35;4.00;;;2.70;;
26050;SDS011;13825;53.496;10.020;2023-05-07T13:10:06;2.77;;;2.40;;
26050;SDS011;13825;53.496;10.020;2023-05-07T13:12:45;3.13;;;2.83;;
26050;SDS011;13825;53.496;10.020;2023-05-07T13:15:15;3.47;;;2.60;;
26050;SDS011;13825;53.496;10.020;2023-05-07T13:17:52;3.03;;;2.70;;
26050;SDS011;13825;53.496;10.020;2023-05-07T13:20:39;3.00;;;2.70;;
26050;SDS011;13825;53.496;10.020;2023-05-07T13:23:06;2.73;;;2.50;;
26050;SDS011;13825;53.496;10.020;2023-05-07T13:25:33;2.50;;;2.30;;
26050;SDS011;13825;53.496;10.020;2023-05-07T13:28:01;5.17;;;2.80;;
26050;SDS011;13825;53.496;10.020;2023-05-07T13:30:29;3.00;;;2.57;;
26050;SDS011;13825;53.496;10.020;2023-05-07T13:32:57;3.23;;;2.33;;
26050;SDS011;13825;53.496;10.020;2023-05-07T13:35:25;2.43;;;2.23;;
26050;SDS011;13825;53.496;10.020;2023-05-07T13:37:52;2.70;;;2.47;;
26050;SDS011;13825;53.496;10.020;2023-05-07T13:40:19;3.10;;;2.50;;
26050;SDS011;13825;53.496;10.020;2023-05-07T13:42:47;3.53;;;2.50;;
26050;SDS011;13825;53.496;10.020;2023-05-07T13:45:14;3.33;;;2.30;;
26050;SDS011;13825;53.496;10.020;2023-05-07T13:47:41;3.27;;;2.30;;
26050;SDS011;13825;53.496;10.020;2023-05-07T13:50:10;2.60;;;2.10;;
26050;SDS011;13825;53.496;10.020;2023-05-07T13:52:39;3.30;;;2.13;;
26050;SDS011;13825;53.496;10.020;2023-05-07T13:55:08;2.80;;;1.97;;
26050;SDS011;13825;53.496;10.020;2023-05-07T13:57:35;2.30;;;2.00;;
26050;SDS011;13825;53.496;10.020;2023-05-07T14:00:09;2.47;;;2.27;;
26050;SDS011;13825;53.496;10.020;2023-05-07T14:02:38;2.43;;;2.23;;
26050;SDS011;13825;53.496;10.020;2023-05-07T14:05:05;2.30;;;2.10;;
26050;SDS011;13825;53.496;10.020;2023-05-07T14:07:34;2.60;;;2.40;;
26050;SDS011;13825;53.496;10.020;2023-05-07T14:10:06;2.37;;;2.17;;
26050;SDS011;13825;53.496;10.020;2023-05-07T14:12:34;2.50;;;2.20;;
26050;SDS011;13825;53.496;10.020;2023-05-07T14:15:01;2.83;;;2.43;;
26050;SDS011;13825;53.496;10.020;2023-05-07T14:17:28;4.90;;;2.33;;
26050;SDS011;13825;53.496;10.020;2023-05-07T14:19:55;4.70;;;2.47;;
26050;SDS011;13825;53.496;10.020;2023-05-07T14:22:23;2.30;;;2.00;;
26050;SDS011;13825;53.496;10.020;2023-05-07T14:24:58;2.83;;;2.10;;
26050;SDS011;13825;53.496;10.020;2023-05-07T14:27:25;2.20;;;1.80;;
26050;SDS011;13825;53.496;10.020;2023-05-07T14:29:51;1.90;;;1.70;;
26050;SDS011;13825;53.496;10.020;2023-05-07T14:32:24;3.10;;;1.83;;
26050;SDS011;13825;53.496;10.020;2023-05-07T14:34:51;2.20;;;2.00;;
26050;SDS011;13825;53.496;10.020;2023-05-07T14:37:20;2.33;;;1.80;;
26050;SDS011;13825;53.496;10.020;2023-05-07T14:39:48;3.00;;;1.90;;
26050;SDS011;13825;53.496;10.020;2023-05-07T14:42:17;2.53;;;1.90;;
26050;SDS011;13825;53.496;10.020;2023-05-07T14:44:44;2.17;;;1.80;;
26050;SDS011;13825;53.496;10.020;2023-05-07T14:47:12;1.97;;;1.77;;
26050;SDS011;13825;53.496;10.020;2023-05-07T14:49:40;3.23;;;1.60;;
26050;SDS011;13825;53.496;10.020;2023-05-07T14:52:08;2.00;;;1.80;;
26050;SDS011;13825;53.496;10.020;2023-05-07T14:54:35;2.47;;;1.70;;
26050;SDS011;13825;53.496;10.020;2023-05-07T14:57:04;1.87;;;1.70;;